createdAt,value
2018-08-16T00:00:58.470Z,54.24
2018-08-16T00:03:28.778Z,53.51
2018-08-16T00:05:59.037Z,52.88
2018-08-16T00:08:29.393Z,53.21
2018-08-16T00:10:59.758Z,52.62
2018-08-16T00:13:30.073Z,53.64
2018-08-16T00:16:00.655Z,53.15
2018-08-16T00:18:31.013Z,53.45
2018-08-16T00:21:01.545Z,54.07
2018-08-16T00:23:31.796Z,53.48
2018-08-16T00:26:02.141Z,52.64
2018-08-16T00:28:32.385Z,53.22
2018-08-16T00:31:02.661Z,52.19
2018-08-16T00:36:12.817Z,53.77
2018-08-16T00:38:43.322Z,56.84
2018-08-16T00:41:14.197Z,56.93
2018-08-16T00:43:44.487Z,58.95
2018-08-16T00:46:14.873Z,57.44
2018-08-16T00:48:45.153Z,56.54
2018-08-16T00:51:15.481Z,55.76
2018-08-16T00:53:45.781Z,56.45
2018-08-16T00:56:16.217Z,57.87
2018-08-16T00:58:46.452Z,57.73
2018-08-16T01:01:17.032Z,56.97
2018-08-16T01:03:47.630Z,56.54
2018-08-16T01:06:18.193Z,57.43
2018-08-16T01:08:48.802Z,56.97
2018-08-16T01:11:19.529Z,57.06
2018-08-16T01:13:50.161Z,57.14
2018-08-16T01:16:20.481Z,55.91
2018-08-16T01:18:50.786Z,57.34
2018-08-16T01:21:21.112Z,56.01
2018-08-16T01:23:51.454Z,57.50
2018-08-16T01:26:21.844Z,57.18
2018-08-16T01:28:52.289Z,57.18
2018-08-16T01:31:22.605Z,57.79
2018-08-16T01:33:52.987Z,57.74
2018-08-16T01:36:23.298Z,57.28
2018-08-16T01:38:53.589Z,57.22
2018-08-16T01:41:23.942Z,56.68
2018-08-16T01:43:54.552Z,56.30
2018-08-16T01:46:25.385Z,56.70
2018-08-16T01:48:55.908Z,56.59
2018-08-16T01:51:26.633Z,57.04
2018-08-16T01:53:57.278Z,56.09
2018-08-16T01:56:27.653Z,56.31
2018-08-16T01:58:58.323Z,55.88
2018-08-16T02:01:29.021Z,56.26
2018-08-16T02:03:59.741Z,57.05
2018-08-16T02:06:30.521Z,56.68
2018-08-16T02:09:01.100Z,58.45
2018-08-16T02:11:32.069Z,57.70
2018-08-16T02:14:02.913Z,58.38
2018-08-16T02:16:33.753Z,58.17
2018-08-16T02:19:04.453Z,57.94
2018-08-16T02:21:35.240Z,58.28
2018-08-16T02:24:06.002Z,58.47
2018-08-16T02:26:36.818Z,57.56
2018-08-16T02:29:07.457Z,57.83
2018-08-16T02:31:38.033Z,57.98
2018-08-16T02:34:08.411Z,58.46
2018-08-16T02:36:39.156Z,58.53
2018-08-16T02:39:10.953Z,58.35
2018-08-16T02:41:41.871Z,58.24
2018-08-16T02:44:12.609Z,58.25
2018-08-16T02:46:43.489Z,58.14
2018-08-16T02:49:14.234Z,57.62
2018-08-16T02:51:44.549Z,57.53
2018-08-16T02:54:14.761Z,58.01
2018-08-16T02:56:45.109Z,58.00
2018-08-16T02:59:15.421Z,57.81
2018-08-16T03:01:45.740Z,58.42
2018-08-16T03:04:16.354Z,58.41
2018-08-16T03:06:46.904Z,58.63
2018-08-16T03:09:17.528Z,59.03
2018-08-16T03:11:48.161Z,58.58
2018-08-16T03:14:18.797Z,57.57
2018-08-16T03:16:49.682Z,59.24
2018-08-16T03:19:20.367Z,59.28
2018-08-16T03:21:51.085Z,58.96
2018-08-16T03:24:21.778Z,60.07
2018-08-16T03:26:52.660Z,59.48
2018-08-16T03:29:22.912Z,59.44
2018-08-16T03:31:53.413Z,58.89
2018-08-16T03:34:23.699Z,58.12
2018-08-16T03:36:54.237Z,58.24
2018-08-16T03:39:24.485Z,58.71
2018-08-16T03:41:54.759Z,59.35
2018-08-16T03:44:25.037Z,59.74
2018-08-16T03:46:55.344Z,59.69
2018-08-16T03:49:25.916Z,59.03
2018-08-16T03:51:56.169Z,58.93
2018-08-16T03:54:26.469Z,59.26
2018-08-16T03:56:57.522Z,58.93
2018-08-16T03:59:27.777Z,58.75
2018-08-16T04:01:58.052Z,57.90
2018-08-16T04:04:28.377Z,57.62
2018-08-16T04:06:58.735Z,57.62
2018-08-16T04:09:29.041Z,58.11
2018-08-16T04:11:59.778Z,58.47
2018-08-16T04:14:30.029Z,58.54
2018-08-16T04:17:00.551Z,57.62
2018-08-16T04:19:30.853Z,56.62
2018-08-16T04:22:01.211Z,55.83
2018-08-16T04:24:31.449Z,56.01
2018-08-16T04:27:01.921Z,57.00
2018-08-16T04:29:32.211Z,55.34
2018-08-16T04:32:02.626Z,55.89
2018-08-16T04:34:32.917Z,56.07
2018-08-16T04:37:03.350Z,55.36
2018-08-16T04:39:33.769Z,55.64
2018-08-16T04:42:04.044Z,55.65
2018-08-16T04:44:34.329Z,53.91
2018-08-16T04:47:04.950Z,50.36
2018-08-16T04:49:35.179Z,46.48
2018-08-16T04:52:05.919Z,46.82
2018-08-16T04:54:36.205Z,46.29
2018-08-16T04:57:06.562Z,45.83
2018-08-16T04:59:36.949Z,46.01
2018-08-16T05:02:07.276Z,46.99
2018-08-16T05:04:37.569Z,45.55
2018-08-16T05:07:07.828Z,45.33
2018-08-16T05:09:38.098Z,45.72
2018-08-16T05:12:08.607Z,44.52
2018-08-16T05:14:38.833Z,43.29
2018-08-16T05:17:09.357Z,42.74
2018-08-16T05:19:39.973Z,44.52
2018-08-16T05:22:10.257Z,42.67
2018-08-16T05:24:41.520Z,41.27
2018-08-16T05:27:11.809Z,39.88
2018-08-16T05:29:42.212Z,40.02
2018-08-16T05:32:12.574Z,40.34
2018-08-16T05:34:42.941Z,39.32
2018-08-16T05:37:13.250Z,39.34
2018-08-16T05:39:43.616Z,38.80
2018-08-16T05:42:13.933Z,38.63
2018-08-16T05:44:44.265Z,39.05
2018-08-16T05:47:14.812Z,40.73
2018-08-16T05:49:45.119Z,41.77
2018-08-16T05:52:15.528Z,42.28
2018-08-16T05:54:45.753Z,38.94
2018-08-16T05:57:16.160Z,38.21
2018-08-16T05:59:46.496Z,38.54
2018-08-16T06:02:16.905Z,40.10
2018-08-16T06:04:47.242Z,39.01
2018-08-16T06:07:17.673Z,40.16
2018-08-16T06:09:47.904Z,40.26
2018-08-16T06:12:18.260Z,41.36
2018-08-16T06:14:48.521Z,40.36
2018-08-16T06:17:18.988Z,39.31
2018-08-16T06:19:49.290Z,39.43
2018-08-16T06:22:19.688Z,39.18
2018-08-16T06:24:49.977Z,37.43
2018-08-16T06:27:20.472Z,37.43
2018-08-16T06:29:50.780Z,37.40
2018-08-16T06:32:21.059Z,37.92
2018-08-16T06:34:51.357Z,38.60
2018-08-16T06:37:21.609Z,37.42
2018-08-16T06:39:52.345Z,35.84
2018-08-16T06:42:22.658Z,36.24
2018-08-16T06:44:53.241Z,36.08
2018-08-16T06:47:23.500Z,35.98
2018-08-16T06:49:53.825Z,35.69
2018-08-16T06:52:24.159Z,35.33
2018-08-16T06:54:54.588Z,36.06
2018-08-16T06:57:24.914Z,34.64
2018-08-16T06:59:55.260Z,33.58
2018-08-16T07:02:25.780Z,35.07
2018-08-16T07:04:56.543Z,34.98
2018-08-16T07:07:27.141Z,34.09
2018-08-16T07:09:57.446Z,35.01
2018-08-16T07:12:28.085Z,33.76
2018-08-16T07:14:58.349Z,33.58
2018-08-16T07:17:29.158Z,32.86
2018-08-16T07:19:59.440Z,31.97
2018-08-16T07:22:29.884Z,32.26
2018-08-16T07:25:00.238Z,33.11
2018-08-16T07:27:30.594Z,34.38
2018-08-16T07:30:01.188Z,33.02
2018-08-16T07:32:31.782Z,31.78
2018-08-16T07:35:02.057Z,31.90
2018-08-16T07:37:32.431Z,32.72
2018-08-16T07:40:02.782Z,30.89
2018-08-16T07:42:33.242Z,32.60
2018-08-16T07:45:03.755Z,31.17
2018-08-16T07:47:34.423Z,31.08
2018-08-16T07:50:07.772Z,30.46
2018-08-16T07:52:38.690Z,31.00
2018-08-16T07:55:09.673Z,30.20
2018-08-16T07:57:40.469Z,28.82
2018-08-16T08:00:16.156Z,28.15
2018-08-16T08:02:47.282Z,30.11
2018-08-16T08:05:17.710Z,26.85
2018-08-16T08:07:48.197Z,30.43
2018-08-16T08:10:18.636Z,27.22
2018-08-16T08:12:49.233Z,28.27
2018-08-16T08:15:19.550Z,26.86
2018-08-16T08:17:49.933Z,26.17
2018-08-16T08:20:20.393Z,25.77
2018-08-16T08:22:50.679Z,26.13
2018-08-16T08:25:21.215Z,25.21
2018-08-16T08:27:51.494Z,24.08
2018-08-16T08:30:21.889Z,23.76
2018-08-16T08:32:52.264Z,23.31
2018-08-16T08:35:22.533Z,25.06
2018-08-16T08:38:02.481Z,24.47
2018-08-16T08:40:32.843Z,26.05
2018-08-16T08:43:03.250Z,23.78
2018-08-16T08:45:33.637Z,22.78
2018-08-16T08:48:03.940Z,23.23
2018-08-16T08:50:34.501Z,22.19
2018-08-16T08:53:21.241Z,22.84
2018-08-16T08:56:07.903Z,21.98
2018-08-16T08:58:51.700Z,21.65
2018-08-16T09:01:22.257Z,23.26
2018-08-16T09:03:52.662Z,22.71
2018-08-16T09:06:22.981Z,22.60
2018-08-16T09:08:53.233Z,20.89
2018-08-16T09:11:39.765Z,21.36
2018-08-16T09:14:26.424Z,22.10
2018-08-16T09:16:56.852Z,22.13
2018-08-16T09:19:27.182Z,21.51
2018-08-16T09:21:57.661Z,21.97
2018-08-16T09:24:28.005Z,21.99
2018-08-16T09:26:58.591Z,23.00
2018-08-16T09:30:43.761Z,23.35
2018-08-16T09:33:30.537Z,23.56
2018-08-16T09:36:00.857Z,20.54
2018-08-16T09:38:31.337Z,22.23
2018-08-16T09:41:01.727Z,20.62
2018-08-16T09:43:32.190Z,22.18
2018-08-16T09:48:13.737Z,22.30
2018-08-16T09:50:44.397Z,23.39
2018-08-16T09:53:14.666Z,22.16
2018-08-16T09:55:45.062Z,23.11
2018-08-16T09:58:15.387Z,21.26
2018-08-16T10:00:50.646Z,19.95
2018-08-16T10:03:21.236Z,21.86
2018-08-16T10:05:51.549Z,22.39
2018-08-16T10:08:22.145Z,21.18
2018-08-16T10:10:52.489Z,22.99
2018-08-16T10:13:22.820Z,21.76
2018-08-16T10:15:53.137Z,19.19
2018-08-16T10:18:23.512Z,20.08
2018-08-16T10:20:53.915Z,21.83
2018-08-16T10:23:24.277Z,19.66
2018-08-16T10:25:54.525Z,20.03
2018-08-16T10:28:24.909Z,20.74
2018-08-16T10:30:55.274Z,19.77
2018-08-16T10:33:25.637Z,21.83
2018-08-16T10:35:55.953Z,20.25
2018-08-16T10:38:26.458Z,20.14
2018-08-16T10:40:56.757Z,19.98
2018-08-16T10:43:27.203Z,21.58
2018-08-16T10:45:57.553Z,18.76
2018-08-16T10:48:27.936Z,16.59
2018-08-16T10:50:58.233Z,20.37
2018-08-16T10:53:28.993Z,21.89
2018-08-16T10:56:00.237Z,21.36
2018-08-16T10:58:31.005Z,23.54
2018-08-16T11:01:01.489Z,21.19
2018-08-16T11:03:32.175Z,21.16
2018-08-16T11:06:02.686Z,21.03
2018-08-16T11:08:33.100Z,21.24
2018-08-16T11:11:03.445Z,21.89
2018-08-16T11:13:34.098Z,19.64
2018-08-16T11:16:04.474Z,20.46
2018-08-16T11:18:34.846Z,20.44
2018-08-16T11:21:05.225Z,21.52
2018-08-16T11:23:35.669Z,21.77
2018-08-16T11:26:06.094Z,22.48
2018-08-16T11:28:36.384Z,19.47
2018-08-16T11:31:06.809Z,19.96
2018-08-16T11:33:37.093Z,19.64
2018-08-16T11:36:07.557Z,18.78
2018-08-16T11:38:37.938Z,20.50
2018-08-16T11:41:08.580Z,18.96
2018-08-16T11:43:38.837Z,18.81
2018-08-16T11:46:09.332Z,22.58
2018-08-16T11:48:39.616Z,22.54
2018-08-16T11:51:10.137Z,18.91
2018-08-16T11:53:40.384Z,19.47
2018-08-16T11:56:10.784Z,19.10
2018-08-16T11:58:41.142Z,20.57
2018-08-16T12:01:11.567Z,18.48
2018-08-16T12:03:41.873Z,19.95
2018-08-16T12:06:12.431Z,18.16
2018-08-16T12:08:42.714Z,18.16
2018-08-16T12:11:13.293Z,20.70
2018-08-16T12:13:43.601Z,22.09
2018-08-16T12:16:14.112Z,21.49
2018-08-16T12:18:44.438Z,21.57
2018-08-16T12:21:14.957Z,22.38
2018-08-16T12:23:45.281Z,22.38
2018-08-16T12:26:15.655Z,18.86
2018-08-16T12:28:45.982Z,19.77
2018-08-16T12:31:16.530Z,18.01
2018-08-16T12:33:46.799Z,18.64
2018-08-16T12:36:17.162Z,19.72
2018-08-16T12:38:47.445Z,21.12
2018-08-16T12:41:17.837Z,22.07
2018-08-16T12:43:48.231Z,23.42
2018-08-16T12:46:18.794Z,23.00
2018-08-16T12:48:49.138Z,21.46
2018-08-16T12:51:20.021Z,21.32
2018-08-16T12:53:50.395Z,20.95
2018-08-16T12:56:20.905Z,20.48
2018-08-16T12:58:51.251Z,22.22
2018-08-16T13:01:21.625Z,22.15
2018-08-16T13:03:52.462Z,22.86
2018-08-16T13:06:22.756Z,21.86
2018-08-16T13:08:53.298Z,21.62
2018-08-16T13:11:23.698Z,23.19
2018-08-16T13:13:54.265Z,24.79
2018-08-16T13:16:24.650Z,22.62
2018-08-16T13:18:55.254Z,23.19
2018-08-16T13:21:25.594Z,24.05
2018-08-16T13:23:56.037Z,21.03
2018-08-16T13:26:26.355Z,21.80
2018-08-16T13:28:56.629Z,23.24
2018-08-16T13:31:27.012Z,21.10
2018-08-16T13:33:57.452Z,22.74
2018-08-16T13:36:27.781Z,25.01
2018-08-16T13:38:58.089Z,22.00
2018-08-16T13:41:28.562Z,23.83
2018-08-16T13:43:58.869Z,22.42
2018-08-16T13:46:29.429Z,23.85
2018-08-16T13:48:59.785Z,22.32
2018-08-16T13:51:30.251Z,22.88
2018-08-16T13:54:00.593Z,23.50
2018-08-16T13:56:31.125Z,23.11
2018-08-16T13:59:01.519Z,22.48
2018-08-16T14:01:32.012Z,23.52
2018-08-16T14:04:02.333Z,22.47
2018-08-16T14:06:32.664Z,23.96
2018-08-16T14:09:03.077Z,23.72
2018-08-16T14:11:33.762Z,22.32
2018-08-16T14:14:04.329Z,20.67
2018-08-16T14:16:34.965Z,22.55
2018-08-16T14:19:05.825Z,20.78
2018-08-16T14:21:36.255Z,22.07
2018-08-16T14:24:06.857Z,23.00
2018-08-16T14:26:37.271Z,22.55
2018-08-16T14:29:07.634Z,21.84
2018-08-16T14:31:38.026Z,23.42
2018-08-16T14:34:08.353Z,23.71
2018-08-16T14:36:38.928Z,26.08
2018-08-16T14:39:11.887Z,25.30
2018-08-16T14:41:42.763Z,25.44
2018-08-16T14:44:13.139Z,24.93
2018-08-16T14:46:43.718Z,26.13
2018-08-16T14:49:14.082Z,25.52
2018-08-16T14:51:44.406Z,26.61
2018-08-16T14:54:15.008Z,24.38
2018-08-16T14:56:45.357Z,23.70
2018-08-16T14:59:15.798Z,24.42
2018-08-16T15:01:46.135Z,22.92
2018-08-16T15:04:16.433Z,24.45
2018-08-16T15:06:46.853Z,24.83
2018-08-16T15:09:17.621Z,25.34
2018-08-16T15:11:48.003Z,23.98
2018-08-16T15:14:18.253Z,22.98
2018-08-16T15:16:48.829Z,23.69
2018-08-16T15:19:20.458Z,24.91
2018-08-16T15:21:50.846Z,23.37
2018-08-16T15:24:22.041Z,24.74
2018-08-16T15:26:52.821Z,24.22
2018-08-16T15:29:23.436Z,23.57
2018-08-16T15:31:54.101Z,24.13
2018-08-16T15:34:24.584Z,23.65
2018-08-16T15:36:55.400Z,24.52
2018-08-16T15:39:26.102Z,23.66
2018-08-16T15:41:56.958Z,24.62
2018-08-16T15:44:27.573Z,23.58
2018-08-16T15:46:58.429Z,25.22
2018-08-16T15:49:29.099Z,24.34
2018-08-16T15:52:00.047Z,23.49
2018-08-16T15:54:30.700Z,24.61
2018-08-16T15:57:01.614Z,24.33
2018-08-16T15:59:32.245Z,25.46
2018-08-16T16:02:02.812Z,24.59
2018-08-16T16:04:33.481Z,25.44
2018-08-16T16:07:04.249Z,24.83
2018-08-16T16:09:34.945Z,25.22
2018-08-16T16:12:05.613Z,24.26
2018-08-16T16:14:36.256Z,24.41
2018-08-16T16:17:06.937Z,26.08
2018-08-16T16:19:38.062Z,25.22
2018-08-16T16:22:08.764Z,26.23
2018-08-16T16:24:39.401Z,25.83
2018-08-16T16:27:10.181Z,26.71
2018-08-16T16:29:40.684Z,25.36
2018-08-16T16:32:11.545Z,26.88
2018-08-16T16:34:42.128Z,26.39
2018-08-16T16:37:12.997Z,27.63
2018-08-16T16:39:43.594Z,26.73
2018-08-16T16:42:14.386Z,27.64
2018-08-16T16:44:44.857Z,26.87
2018-08-16T16:47:15.527Z,27.22
2018-08-16T16:49:45.858Z,27.63
2018-08-16T16:52:16.410Z,27.83
2018-08-16T16:54:46.729Z,28.28
2018-08-16T16:57:17.586Z,28.74
2018-08-16T16:59:47.933Z,28.53
2018-08-16T17:02:18.378Z,28.44
2018-08-16T17:04:48.711Z,29.32
2018-08-16T17:07:19.464Z,28.94
2018-08-16T17:09:50.083Z,29.15
2018-08-16T17:12:20.660Z,29.20
2018-08-16T17:14:51.094Z,28.37
2018-08-16T17:17:21.785Z,29.04
2018-08-16T17:19:52.478Z,29.37
2018-08-16T17:22:23.224Z,29.30
2018-08-16T17:24:53.938Z,29.46
2018-08-16T17:27:24.765Z,29.42
2018-08-16T17:29:55.322Z,30.70
2018-08-16T17:32:26.298Z,29.50
2018-08-16T17:34:56.964Z,30.51
2018-08-16T17:37:27.710Z,32.67
2018-08-16T17:39:58.413Z,35.34
2018-08-16T17:42:29.081Z,35.03
2018-08-16T17:44:59.755Z,35.30
2018-08-16T17:47:30.396Z,35.03
2018-08-16T17:50:01.212Z,34.98
2018-08-16T17:52:32.105Z,33.32
2018-08-16T17:55:02.834Z,32.93
2018-08-16T17:57:33.657Z,32.84
2018-08-16T18:00:04.453Z,32.92
2018-08-16T18:02:35.078Z,33.10
2018-08-16T18:05:05.845Z,32.57
2018-08-16T18:07:36.781Z,31.80
2018-08-16T18:10:08.974Z,31.55
2018-08-16T18:12:39.800Z,30.89
2018-08-16T18:15:12.556Z,30.99
2018-08-16T18:17:43.282Z,31.38
2018-08-16T18:20:13.830Z,30.60
2018-08-16T18:22:44.590Z,31.38
2018-08-16T18:25:15.234Z,32.50
2018-08-16T18:27:45.942Z,32.58
2018-08-16T18:30:16.585Z,33.66
2018-08-16T18:32:47.344Z,33.68
2018-08-16T18:35:17.995Z,33.28
2018-08-16T18:37:48.609Z,33.58
2018-08-16T18:40:19.366Z,33.43
2018-08-16T18:42:50.038Z,35.14
2018-08-16T18:45:20.381Z,36.12
2018-08-16T18:47:51.044Z,37.32
2018-08-16T18:50:21.350Z,36.31
2018-08-16T18:52:51.708Z,35.86
2018-08-16T18:55:22.372Z,35.22
2018-08-16T18:57:52.697Z,35.08
2018-08-16T19:00:23.069Z,34.71
2018-08-16T19:02:53.428Z,34.67
2018-08-16T19:05:23.783Z,33.50
2018-08-16T19:07:54.178Z,32.70
2018-08-16T19:10:24.474Z,32.80
2018-08-16T19:12:54.846Z,32.35
2018-08-16T19:15:25.161Z,32.32
2018-08-16T19:17:55.672Z,33.01
2018-08-16T19:20:26.407Z,34.63
2018-08-16T19:22:56.900Z,35.27
2018-08-16T19:25:27.513Z,35.86
2018-08-16T19:27:57.995Z,36.06
2018-08-16T19:30:28.268Z,36.65
2018-08-16T19:32:58.708Z,36.64
2018-08-16T19:35:29.027Z,36.49
2018-08-16T19:37:59.434Z,36.57
2018-08-16T19:40:29.876Z,38.42
2018-08-16T19:43:00.099Z,38.54
2018-08-16T19:45:30.581Z,40.50
2018-08-16T19:48:00.977Z,43.78
2018-08-16T19:50:31.442Z,45.46
2018-08-16T19:53:01.817Z,46.80
2018-08-16T19:55:32.067Z,47.32
2018-08-16T19:58:02.532Z,43.93
2018-08-16T20:00:33.117Z,45.64
2018-08-16T20:03:03.644Z,50.05
2018-08-16T20:05:33.848Z,48.40
2018-08-16T20:08:04.338Z,46.24
2018-08-16T20:10:34.956Z,45.76
2018-08-16T20:13:05.752Z,47.30
2018-08-16T20:15:36.389Z,50.89
2018-08-16T20:18:07.217Z,53.83
2018-08-16T20:20:38.053Z,54.56
2018-08-16T20:23:08.597Z,54.18
2018-08-16T20:25:39.249Z,53.42
2018-08-16T20:28:09.921Z,53.05
2018-08-16T20:30:40.690Z,51.93
2018-08-16T20:33:11.608Z,53.44
2018-08-16T20:35:42.225Z,52.41
2018-08-16T20:38:12.967Z,52.65
2018-08-16T20:40:43.729Z,52.85
2018-08-16T20:43:14.560Z,49.86
2018-08-16T20:45:45.392Z,48.80
2018-08-16T20:48:16.173Z,50.04
2018-08-16T20:50:46.894Z,51.36
2018-08-16T20:53:17.837Z,54.97
2018-08-16T20:55:48.465Z,52.73
2018-08-16T20:58:19.372Z,57.04
2018-08-16T21:00:50.150Z,58.97
2018-08-16T21:03:20.952Z,59.47
2018-08-16T21:05:51.412Z,62.62
2018-08-16T21:08:22.080Z,62.77
2018-08-16T21:10:52.642Z,62.26
2018-08-16T21:13:23.233Z,64.05
2018-08-16T21:15:53.748Z,63.77
2018-08-16T21:18:24.412Z,64.88
2018-08-16T21:20:54.989Z,65.29
2018-08-16T21:23:25.665Z,67.39
2018-08-16T21:25:56.358Z,68.97
2018-08-16T21:28:27.074Z,70.66
2018-08-16T21:30:57.704Z,72.03
2018-08-16T21:33:28.441Z,71.58
2018-08-16T21:35:59.032Z,70.63
2018-08-16T21:38:29.704Z,71.24
2018-08-16T21:41:00.341Z,70.05
2018-08-16T21:43:31.012Z,68.85
2018-08-16T21:46:01.755Z,69.79
2018-08-16T21:48:32.805Z,70.66
